createdAt,value
2019-03-20T00:02:07.770Z,19.48
2019-03-20T00:04:34.440Z,13.30
2019-03-20T00:07:01.234Z,12.03
2019-03-20T00:09:27.803Z,17.57
2019-03-20T00:11:54.770Z,15.48
2019-03-20T00:14:21.463Z,20.32
2019-03-20T00:16:48.158Z,16.67
2019-03-20T00:19:14.861Z,18.73
2019-03-20T00:21:41.640Z,15.48
2019-03-20T00:24:08.334Z,9.78
2019-03-20T00:26:34.903Z,20.85
2019-03-20T00:29:01.600Z,14.75
2019-03-20T00:31:28.278Z,17.17
2019-03-20T00:33:54.876Z,27.00
2019-03-20T00:36:21.551Z,22.48
2019-03-20T00:38:48.339Z,21.60
2019-03-20T00:41:14.915Z,18.37
2019-03-20T00:43:41.700Z,27.05
2019-03-20T00:46:08.474Z,25.43
2019-03-20T00:48:35.155Z,23.12
2019-03-20T00:51:01.939Z,22.90
2019-03-20T00:53:28.643Z,24.72
2019-03-20T00:55:55.363Z,18.62
2019-03-20T00:58:22.054Z,29.18
2019-03-20T01:00:48.863Z,23.87
2019-03-20T01:03:15.549Z,25.27
2019-03-20T01:05:42.235Z,28.83
2019-03-20T01:08:09.039Z,20.75
2019-03-20T01:10:35.710Z,26.10
2019-03-20T01:13:02.499Z,22.40
2019-03-20T01:15:29.262Z,18.80
2019-03-20T01:17:55.868Z,15.10
2019-03-20T01:20:22.654Z,19.73
2019-03-20T01:22:49.439Z,21.02
2019-03-20T01:25:16.944Z,24.72
2019-03-20T01:27:43.717Z,19.30
2019-03-20T01:30:29.615Z,22.37
2019-03-20T01:32:56.208Z,17.62
2019-03-20T01:35:24.060Z,19.02
2019-03-20T01:37:50.970Z,17.32
2019-03-20T01:40:17.667Z,18.12
2019-03-20T01:42:44.267Z,19.82
2019-03-20T01:45:11.103Z,21.90
2019-03-20T01:47:37.851Z,18.55
2019-03-20T01:50:04.785Z,19.90
2019-03-20T01:52:31.359Z,18.70
2019-03-20T01:54:58.104Z,9.93
2019-03-20T01:57:24.801Z,18.65
2019-03-20T01:59:51.537Z,13.05
2019-03-20T02:02:18.323Z,12.78
2019-03-20T02:04:45.124Z,25.43
2019-03-20T02:07:11.797Z,17.40
2019-03-20T02:09:38.532Z,23.55
2019-03-20T02:12:05.299Z,13.13
2019-03-20T02:14:45.791Z,16.35
2019-03-20T02:17:16.000Z,17.82
2019-03-20T02:19:42.931Z,25.30
2019-03-20T02:22:09.705Z,13.03
2019-03-20T02:24:36.506Z,16.85
2019-03-20T02:27:03.272Z,29.72
2019-03-20T02:29:29.962Z,20.97
2019-03-20T02:31:56.540Z,15.80
2019-03-20T02:34:23.138Z,20.08
2019-03-20T02:36:49.727Z,17.02
2019-03-20T02:39:16.332Z,17.00
2019-03-20T02:41:43.009Z,18.07
2019-03-20T02:44:09.799Z,19.57
2019-03-20T02:46:36.384Z,15.55
2019-03-20T02:49:03.186Z,15.20
2019-03-20T02:51:29.862Z,21.45
2019-03-20T02:53:56.554Z,17.07
2019-03-20T02:56:23.690Z,19.77
2019-03-20T02:58:50.289Z,20.80
2019-03-20T03:01:16.981Z,12.75
2019-03-20T03:03:43.550Z,27.87
2019-03-20T03:06:10.226Z,17.65
2019-03-20T03:08:36.992Z,19.40
2019-03-20T03:11:03.807Z,15.32
2019-03-20T03:13:30.376Z,16.10
2019-03-20T03:15:57.066Z,17.50
2019-03-20T03:18:23.778Z,23.62
2019-03-20T03:20:50.447Z,17.95
2019-03-20T03:23:17.397Z,22.73
2019-03-20T03:25:44.098Z,29.18
2019-03-20T03:28:10.767Z,18.07
2019-03-20T03:30:37.479Z,19.48
2019-03-20T03:33:04.353Z,14.23
2019-03-20T03:35:31.149Z,19.60
2019-03-20T03:37:57.945Z,17.27
2019-03-20T03:40:26.536Z,17.23
2019-03-20T03:42:53.338Z,18.15
2019-03-20T03:45:20.184Z,17.30
2019-03-20T03:47:47.006Z,20.17
2019-03-20T03:50:13.936Z,23.73
2019-03-20T03:52:41.141Z,13.88
2019-03-20T03:55:27.592Z,17.57
2019-03-20T03:57:54.535Z,13.98
2019-03-20T04:00:21.378Z,17.87
2019-03-20T04:02:48.154Z,21.40
2019-03-20T04:05:14.966Z,21.68
2019-03-20T04:07:41.751Z,20.90
2019-03-20T04:10:09.467Z,23.18
2019-03-20T04:12:36.152Z,15.45
2019-03-20T04:15:03.474Z,16.87
2019-03-20T04:17:30.249Z,18.07
2019-03-20T04:19:57.265Z,22.55
2019-03-20T04:22:24.058Z,23.87
2019-03-20T04:24:50.760Z,13.65
2019-03-20T04:27:17.535Z,16.12
2019-03-20T04:29:44.308Z,18.87
2019-03-20T04:32:11.522Z,17.75
2019-03-20T04:34:38.192Z,19.42
2019-03-20T04:37:04.992Z,24.25
2019-03-20T04:39:31.670Z,18.70
2019-03-20T04:41:58.267Z,22.50
2019-03-20T04:44:24.836Z,22.80
2019-03-20T04:46:51.539Z,27.00
2019-03-20T04:49:18.232Z,26.23
2019-03-20T04:51:45.028Z,16.73
2019-03-20T04:54:11.609Z,21.50
2019-03-20T04:56:38.331Z,25.20
2019-03-20T04:59:05.023Z,20.55
2019-03-20T05:01:31.720Z,23.02
2019-03-20T05:03:58.498Z,31.07
2019-03-20T05:06:25.199Z,21.00
2019-03-20T05:08:51.870Z,21.87
2019-03-20T05:11:18.657Z,28.20
2019-03-20T05:13:45.363Z,27.82
2019-03-20T05:16:12.055Z,21.57
2019-03-20T05:18:38.629Z,35.00
2019-03-20T05:21:05.445Z,27.17
2019-03-20T05:23:32.025Z,23.65
2019-03-20T05:25:58.619Z,28.75
2019-03-20T05:28:25.196Z,34.92
2019-03-20T05:30:51.926Z,34.38
2019-03-20T05:33:18.586Z,35.80
2019-03-20T05:35:45.171Z,30.10
2019-03-20T05:38:11.837Z,31.55
2019-03-20T05:40:38.512Z,32.45
2019-03-20T05:43:05.216Z,36.35
2019-03-20T05:45:31.991Z,27.95
2019-03-20T05:47:58.687Z,32.70
2019-03-20T05:50:25.261Z,38.92
2019-03-20T05:52:51.853Z,35.63
2019-03-20T05:55:18.534Z,29.40
2019-03-20T05:57:45.230Z,29.45
2019-03-20T06:00:12.741Z,43.45
2019-03-20T06:02:41.834Z,31.20
2019-03-20T06:05:08.605Z,42.80
2019-03-20T06:07:35.196Z,39.53
2019-03-20T06:10:01.982Z,31.68
2019-03-20T06:12:28.674Z,36.20
2019-03-20T06:14:55.344Z,30.12
2019-03-20T06:17:22.027Z,34.30
2019-03-20T06:19:48.696Z,27.62
2019-03-20T06:22:15.403Z,22.48
2019-03-20T06:24:42.085Z,28.60
2019-03-20T06:27:08.783Z,26.25
2019-03-20T06:29:35.441Z,24.15
2019-03-20T06:32:02.162Z,24.00
2019-03-20T06:34:28.842Z,27.85
2019-03-20T06:36:55.456Z,23.22
2019-03-20T06:39:22.125Z,22.93
2019-03-20T06:41:48.810Z,20.50
2019-03-20T06:44:15.391Z,20.75
2019-03-20T06:46:42.086Z,25.00
2019-03-20T06:49:08.864Z,22.65
2019-03-20T06:51:35.451Z,15.90
2019-03-20T06:54:02.120Z,16.55
2019-03-20T06:56:28.839Z,12.70
2019-03-20T06:59:48.569Z,16.75
2019-03-20T07:02:15.361Z,18.85
2019-03-20T07:05:05.779Z,18.65
2019-03-20T07:07:44.147Z,14.47
2019-03-20T07:10:21.168Z,18.60
2019-03-20T07:12:47.975Z,14.85
2019-03-20T07:15:14.635Z,17.80
2019-03-20T07:17:41.241Z,16.12
2019-03-20T07:20:08.800Z,15.78
2019-03-20T07:22:35.438Z,13.45
2019-03-20T07:25:02.519Z,20.92
2019-03-20T07:27:29.211Z,21.48
2019-03-20T07:29:55.878Z,20.00
2019-03-20T07:32:22.581Z,20.08
2019-03-20T07:34:49.249Z,17.65
2019-03-20T07:37:15.927Z,18.70
2019-03-20T07:39:42.542Z,16.02
2019-03-20T07:42:09.183Z,16.23
2019-03-20T07:44:35.871Z,18.10
2019-03-20T07:47:02.554Z,16.85
2019-03-20T07:49:29.340Z,16.77
2019-03-20T07:51:56.027Z,15.75
2019-03-20T07:54:22.733Z,17.30
2019-03-20T07:56:49.329Z,15.60
2019-03-20T07:59:15.917Z,19.77
2019-03-20T08:01:42.597Z,16.82
2019-03-20T08:04:09.383Z,18.17
2019-03-20T08:06:36.051Z,18.27
2019-03-20T08:09:05.710Z,16.50
2019-03-20T08:11:32.387Z,18.67
2019-03-20T08:13:58.973Z,18.65
2019-03-20T08:16:25.648Z,18.52
2019-03-20T08:18:52.454Z,15.58
2019-03-20T08:21:19.330Z,20.43
2019-03-20T08:23:45.959Z,14.55
2019-03-20T08:26:12.704Z,15.20
2019-03-20T08:28:39.736Z,16.82
2019-03-20T08:31:06.496Z,19.17
2019-03-20T08:33:33.216Z,21.65
2019-03-20T08:35:59.785Z,19.02
2019-03-20T08:38:26.479Z,18.57
2019-03-20T08:40:53.147Z,16.45
2019-03-20T08:43:19.761Z,16.20
2019-03-20T08:45:46.428Z,16.80
2019-03-20T08:48:13.134Z,15.38
2019-03-20T08:50:39.906Z,17.67
2019-03-20T08:53:06.712Z,20.45
2019-03-20T08:55:33.461Z,19.42
2019-03-20T08:58:00.209Z,18.73
2019-03-20T09:00:27.004Z,21.37
2019-03-20T09:02:53.836Z,17.92
2019-03-20T09:05:20.625Z,20.43
2019-03-20T09:07:47.935Z,19.37
2019-03-20T09:10:16.606Z,21.23
2019-03-20T09:12:43.391Z,19.55
2019-03-20T09:15:11.365Z,15.08
2019-03-20T09:17:38.038Z,15.72
2019-03-20T09:20:05.303Z,17.20
2019-03-20T09:22:31.983Z,23.80
2019-03-20T09:24:58.785Z,15.78
2019-03-20T09:27:25.373Z,17.12
2019-03-20T09:29:51.976Z,15.60
2019-03-20T09:32:18.671Z,20.15
2019-03-20T09:34:45.470Z,17.15
2019-03-20T09:37:12.055Z,16.52
2019-03-20T09:39:38.733Z,17.82
2019-03-20T09:42:05.497Z,16.27
2019-03-20T09:44:32.195Z,16.97
2019-03-20T09:46:58.962Z,17.82
2019-03-20T09:49:25.551Z,21.45
2019-03-20T09:51:52.321Z,15.23
2019-03-20T09:54:19.116Z,16.02
2019-03-20T09:56:45.913Z,18.98
2019-03-20T09:59:12.704Z,13.50
2019-03-20T10:01:39.282Z,15.90
2019-03-20T10:04:06.071Z,11.97
2019-03-20T10:06:32.736Z,14.50
2019-03-20T10:09:01.863Z,13.68
2019-03-20T10:11:27.894Z,13.62
2019-03-20T10:13:54.474Z,15.70
2019-03-20T10:16:21.133Z,12.40
2019-03-20T10:18:47.815Z,13.35
2019-03-20T10:21:14.377Z,15.93
2019-03-20T10:23:40.970Z,22.45
2019-03-20T10:26:07.658Z,15.60
2019-03-20T10:28:34.806Z,15.85
2019-03-20T10:31:01.503Z,18.82
2019-03-20T10:33:28.076Z,17.20
2019-03-20T10:35:54.748Z,14.95
2019-03-20T10:38:21.314Z,19.85
2019-03-20T10:40:47.996Z,22.27
2019-03-20T10:43:14.650Z,14.78
2019-03-20T10:45:41.443Z,16.42
2019-03-20T10:48:08.113Z,14.50
2019-03-20T10:50:34.809Z,11.43
2019-03-20T10:53:01.588Z,17.32
2019-03-20T10:55:28.366Z,13.78
2019-03-20T10:57:55.002Z,17.60
2019-03-20T11:00:21.886Z,13.10
2019-03-20T11:02:48.671Z,14.15
2019-03-20T11:05:15.631Z,12.55
2019-03-20T11:07:42.310Z,12.98
2019-03-20T11:10:10.003Z,11.97
2019-03-20T11:12:36.667Z,12.60
2019-03-20T11:15:04.886Z,14.78
2019-03-20T11:17:31.539Z,15.80
2019-03-20T11:19:58.141Z,10.88
2019-03-20T11:22:24.906Z,15.00
2019-03-20T11:24:51.730Z,13.10
2019-03-20T11:27:18.411Z,9.23
2019-03-20T11:29:45.134Z,12.95
2019-03-20T11:32:14.334Z,7.35
2019-03-20T11:34:40.889Z,12.28
2019-03-20T11:37:07.554Z,9.40
2019-03-20T11:39:34.377Z,6.30
2019-03-20T11:42:01.461Z,8.25
2019-03-20T11:44:28.055Z,8.70
2019-03-20T11:46:54.859Z,9.50
2019-03-20T11:49:21.687Z,9.73
2019-03-20T11:51:48.384Z,10.05
2019-03-20T11:54:14.979Z,11.80
2019-03-20T11:56:41.789Z,8.95
2019-03-20T11:59:08.458Z,9.88
2019-03-20T12:01:35.256Z,6.72
2019-03-20T12:04:02.019Z,8.73
2019-03-20T12:06:28.742Z,5.70
2019-03-20T12:08:55.312Z,6.62
2019-03-20T12:11:21.954Z,6.10
2019-03-20T12:13:48.733Z,4.83
2019-03-20T12:16:15.427Z,8.65
2019-03-20T12:18:42.023Z,7.95
2019-03-20T12:21:08.821Z,7.67
2019-03-20T12:23:35.504Z,7.85
2019-03-20T12:26:02.289Z,9.90
2019-03-20T12:28:28.901Z,7.65
2019-03-20T12:30:55.565Z,8.10
2019-03-20T12:33:22.256Z,12.18
2019-03-20T12:35:49.055Z,9.30
2019-03-20T12:38:15.839Z,15.20
2019-03-20T12:40:42.613Z,10.68
2019-03-20T12:43:09.414Z,13.10
2019-03-20T12:45:36.214Z,10.72
2019-03-20T12:48:04.871Z,13.62
2019-03-20T12:50:31.650Z,10.78
2019-03-20T12:52:58.472Z,13.75
2019-03-20T12:55:25.240Z,14.40
2019-03-20T12:57:52.081Z,10.38
2019-03-20T13:00:20.228Z,8.75
2019-03-20T13:02:47.015Z,11.48
2019-03-20T13:05:13.975Z,12.15
2019-03-20T13:07:40.755Z,10.23
2019-03-20T13:10:09.284Z,12.68
2019-03-20T13:12:35.961Z,10.43
2019-03-20T13:15:03.405Z,9.45
2019-03-20T13:17:30.205Z,13.85
2019-03-20T13:19:56.902Z,11.48
2019-03-20T13:22:24.878Z,7.87
2019-03-20T13:24:51.644Z,9.23
2019-03-20T13:27:18.339Z,7.83
2019-03-20T13:29:45.009Z,9.05
2019-03-20T13:32:11.801Z,10.78
2019-03-20T13:34:38.598Z,11.73
2019-03-20T13:37:05.395Z,12.03
2019-03-20T13:39:31.965Z,10.63
2019-03-20T13:42:00.873Z,8.93
2019-03-20T13:44:27.444Z,11.48
2019-03-20T13:46:54.272Z,9.70
2019-03-20T13:49:20.947Z,11.97
2019-03-20T13:51:47.669Z,10.60
2019-03-20T13:54:14.234Z,11.48
2019-03-20T13:56:41.024Z,12.80
2019-03-20T13:59:07.717Z,8.78
2019-03-20T14:01:34.449Z,12.50
2019-03-20T14:04:01.260Z,11.70
2019-03-20T14:06:28.103Z,15.72
2019-03-20T14:08:54.892Z,10.63
2019-03-20T14:11:21.728Z,12.53
2019-03-20T14:13:48.417Z,13.65
2019-03-20T14:16:15.246Z,12.58
2019-03-20T14:18:42.017Z,12.73
2019-03-20T14:21:08.773Z,11.40
2019-03-20T14:23:35.462Z,11.68
2019-03-20T14:26:02.256Z,11.38
2019-03-20T14:28:28.863Z,19.45
2019-03-20T14:30:55.726Z,15.88
2019-03-20T14:33:22.517Z,12.43
2019-03-20T14:35:49.298Z,25.10
2019-03-20T14:38:15.992Z,23.12
2019-03-20T14:40:42.750Z,14.20
2019-03-20T14:43:09.631Z,13.53
2019-03-20T14:45:36.541Z,7.25
2019-03-20T14:48:04.150Z,11.22
2019-03-20T14:50:30.955Z,11.03
2019-03-20T14:52:57.754Z,9.98
2019-03-20T14:55:24.704Z,11.93
2019-03-20T14:57:51.459Z,13.58
2019-03-20T15:00:19.883Z,12.68
2019-03-20T15:02:46.712Z,12.47
2019-03-20T15:05:13.688Z,16.65
2019-03-20T15:07:40.489Z,9.68
2019-03-20T15:10:08.400Z,15.23
2019-03-20T15:12:35.175Z,15.13
2019-03-20T15:15:02.376Z,10.25
2019-03-20T15:17:29.178Z,15.43
2019-03-20T15:19:55.772Z,9.30
2019-03-20T15:22:22.558Z,10.50
2019-03-20T15:24:49.362Z,10.72
2019-03-20T15:27:16.072Z,10.45
2019-03-20T15:29:42.837Z,13.85
2019-03-20T15:32:09.616Z,7.90
2019-03-20T15:34:36.207Z,12.03
2019-03-20T15:37:03.376Z,9.10
2019-03-20T15:39:30.059Z,9.78
2019-03-20T15:41:56.739Z,13.68
2019-03-20T15:44:23.336Z,15.88
2019-03-20T15:46:50.118Z,12.10
2019-03-20T15:49:16.921Z,11.18
2019-03-20T15:51:43.592Z,15.15
2019-03-20T15:54:10.293Z,10.38
2019-03-20T15:56:37.082Z,13.70
2019-03-20T15:59:03.881Z,15.48
2019-03-20T16:01:30.554Z,15.68
2019-03-20T16:03:57.353Z,13.08
2019-03-20T16:06:24.129Z,14.83
2019-03-20T16:08:50.912Z,15.50
2019-03-20T16:11:17.591Z,13.45
2019-03-20T16:13:44.374Z,11.88
2019-03-20T16:16:11.047Z,13.13
2019-03-20T16:18:37.843Z,13.08
2019-03-20T16:21:04.645Z,13.00
2019-03-20T16:23:31.364Z,14.93
2019-03-20T16:26:00.903Z,11.25
2019-03-20T16:28:27.600Z,13.55
2019-03-20T16:30:54.283Z,11.35
2019-03-20T16:33:20.957Z,13.72
2019-03-20T16:35:47.653Z,14.18
2019-03-20T16:38:14.321Z,12.37
2019-03-20T16:40:40.999Z,15.68
2019-03-20T16:43:07.582Z,12.68
2019-03-20T16:45:34.367Z,18.75
2019-03-20T16:48:01.136Z,12.15
2019-03-20T16:50:28.055Z,8.58
2019-03-20T16:52:54.814Z,14.58
2019-03-20T16:55:21.592Z,8.48
2019-03-20T16:57:48.286Z,10.35
2019-03-20T17:00:22.638Z,11.78
2019-03-20T17:02:49.445Z,13.55
2019-03-20T17:05:16.450Z,10.75
2019-03-20T17:07:43.190Z,12.88
2019-03-20T17:10:15.552Z,10.30
2019-03-20T17:12:42.306Z,13.50
2019-03-20T17:15:13.132Z,25.08
2019-03-20T17:17:39.811Z,22.60
2019-03-20T17:20:06.721Z,13.58
2019-03-20T17:22:41.777Z,10.72
2019-03-20T17:25:02.133Z,10.23
2019-03-20T17:27:28.862Z,15.43
2019-03-20T17:29:55.767Z,11.50
2019-03-20T17:32:22.548Z,9.15
2019-03-20T17:34:49.250Z,12.88
2019-03-20T17:37:16.092Z,10.93
2019-03-20T17:39:42.881Z,10.93
2019-03-20T17:42:09.586Z,10.40
2019-03-20T17:44:36.257Z,14.98
2019-03-20T17:47:03.060Z,15.00
2019-03-20T17:49:29.720Z,13.10
2019-03-20T17:51:56.560Z,14.10
2019-03-20T17:54:23.235Z,9.53
2019-03-20T17:56:49.975Z,10.95
2019-03-20T17:59:16.636Z,14.85
2019-03-20T18:01:43.348Z,26.07
2019-03-20T18:04:10.008Z,11.55
2019-03-20T18:06:36.791Z,10.03
2019-03-20T18:09:06.532Z,9.25
2019-03-20T18:11:33.245Z,7.60
2019-03-20T18:13:59.918Z,9.38
2019-03-20T18:16:26.602Z,11.55
2019-03-20T18:18:53.195Z,12.63
2019-03-20T18:21:19.888Z,10.93
2019-03-20T18:23:46.445Z,13.32
2019-03-20T18:26:13.251Z,12.47
2019-03-20T18:28:39.820Z,11.40
2019-03-20T18:31:06.538Z,11.55
2019-03-20T18:33:33.077Z,15.75
2019-03-20T18:35:59.866Z,12.43
2019-03-20T18:38:26.532Z,17.07
2019-03-20T18:40:53.220Z,15.98
2019-03-20T18:43:20.006Z,15.55
2019-03-20T18:45:46.678Z,15.88
2019-03-20T18:48:13.340Z,24.27
2019-03-20T18:50:40.145Z,15.50
2019-03-20T18:53:06.906Z,15.65
2019-03-20T18:55:33.619Z,16.20
2019-03-20T18:58:00.393Z,12.50
2019-03-20T19:00:27.186Z,16.57
2019-03-20T19:02:54.638Z,19.12
2019-03-20T19:05:27.983Z,17.17
2019-03-20T19:07:54.891Z,15.83
2019-03-20T19:10:21.749Z,14.40
2019-03-20T19:12:48.494Z,10.43
2019-03-20T19:15:15.444Z,16.60
2019-03-20T19:17:42.142Z,12.85
2019-03-20T19:20:09.284Z,11.48
2019-03-20T19:22:36.050Z,11.53
2019-03-20T19:25:03.931Z,9.08
2019-03-20T19:27:30.714Z,20.95
2019-03-20T19:29:57.410Z,14.95
2019-03-20T19:32:24.117Z,13.55
2019-03-20T19:34:50.796Z,11.97
2019-03-20T19:37:17.374Z,15.00
2019-03-20T19:39:43.937Z,11.65
2019-03-20T19:42:19.595Z,13.75
2019-03-20T19:44:39.089Z,12.58
2019-03-20T19:47:05.784Z,14.98
2019-03-20T19:49:32.372Z,22.02
2019-03-20T19:51:59.069Z,23.02
2019-03-20T19:54:25.638Z,19.85
2019-03-20T19:56:53.180Z,18.85
2019-03-20T19:59:19.859Z,23.35
2019-03-20T20:01:46.667Z,17.75
2019-03-20T20:04:13.358Z,22.75
2019-03-20T20:06:40.041Z,19.23
2019-03-20T20:09:06.790Z,20.77
2019-03-20T20:11:33.635Z,17.62
2019-03-20T20:14:00.413Z,18.17
2019-03-20T20:16:27.088Z,17.17
2019-03-20T20:18:53.874Z,15.35
2019-03-20T20:21:20.629Z,19.17
2019-03-20T20:23:47.419Z,16.35
2019-03-20T20:26:14.190Z,20.65
2019-03-20T20:28:40.973Z,17.32
2019-03-20T20:31:07.748Z,18.02
2019-03-20T20:33:34.312Z,18.70
2019-03-20T20:36:00.976Z,12.65
2019-03-20T20:38:27.562Z,11.70
2019-03-20T20:40:54.228Z,12.05
2019-03-20T20:43:21.011Z,12.95
2019-03-20T20:45:47.607Z,10.38
2019-03-20T20:48:14.380Z,7.80
2019-03-20T20:50:41.072Z,10.58
2019-03-20T20:53:07.745Z,10.08
2019-03-20T20:55:35.000Z,10.80
2019-03-20T20:58:01.699Z,11.40
2019-03-20T21:00:28.362Z,8.65
2019-03-20T21:02:55.147Z,10.82
2019-03-20T21:05:21.923Z,7.87
2019-03-20T21:07:48.742Z,8.55
2019-03-20T21:10:15.422Z,11.05
2019-03-20T21:12:42.790Z,10.23
2019-03-20T21:15:21.454Z,10.95
2019-03-20T21:18:12.352Z,10.28
2019-03-20T21:23:53.566Z,9.00
2019-03-20T21:26:20.805Z,8.93
2019-03-20T21:29:14.431Z,9.63
2019-03-20T21:31:55.035Z,11.45
2019-03-20T21:34:57.147Z,12.05
2019-03-20T21:38:04.984Z,11.83
2019-03-20T21:40:40.100Z,14.33
2019-03-20T21:43:43.317Z,8.08
2019-03-20T21:46:59.851Z,15.18
2019-03-20T21:49:27.072Z,12.43
2019-03-20T21:51:54.416Z,14.80
2019-03-20T21:55:18.166Z,11.33
2019-03-20T21:57:59.612Z,12.53
2019-03-20T22:01:23.373Z,9.73
2019-03-20T22:03:50.713Z,11.05
2019-03-20T22:06:54.352Z,13.58
2019-03-20T22:09:51.144Z,15.80
2019-03-20T22:12:28.586Z,14.75
2019-03-20T22:15:01.142Z,15.72
2019-03-20T22:18:21.782Z,17.45
2019-03-20T22:20:57.192Z,12.93
2019-03-20T22:24:04.727Z,14.85
2019-03-20T22:27:21.646Z,16.12
2019-03-20T22:29:48.866Z,19.98
2019-03-20T22:33:08.538Z,15.50
2019-03-20T22:35:45.254Z,17.85
2019-03-20T22:38:33.719Z,16.85
2019-03-20T22:41:48.058Z,19.42
2019-03-20T22:44:15.274Z,16.85
2019-03-20T22:47:22.414Z,15.13
2019-03-20T22:50:23.132Z,16.73
2019-03-20T22:53:29.163Z,18.67
2019-03-20T22:56:33.526Z,15.13
2019-03-20T22:59:00.909Z,21.15
2019-03-20T23:01:55.566Z,19.90
2019-03-20T23:04:27.543Z,18.23
2019-03-20T23:06:54.847Z,17.50
2019-03-20T23:09:22.187Z,16.12
2019-03-20T23:11:49.584Z,19.87
2019-03-20T23:14:16.911Z,16.97
2019-03-20T23:16:44.218Z,14.60
2019-03-20T23:19:11.567Z,19.77
2019-03-20T23:21:38.863Z,13.62
2019-03-20T23:24:06.187Z,23.30
2019-03-20T23:26:33.530Z,19.32
2019-03-20T23:29:00.904Z,17.95
2019-03-20T23:31:28.202Z,15.88
2019-03-20T23:33:55.418Z,18.50
2019-03-20T23:36:22.949Z,17.60
2019-03-20T23:38:50.249Z,16.52
2019-03-20T23:41:17.604Z,22.65
2019-03-20T23:43:52.849Z,19.40
2019-03-20T23:46:14.131Z,19.60
2019-03-20T23:48:50.993Z,19.80
2019-03-20T23:51:19.596Z,15.75
2019-03-20T23:53:51.836Z,19.37
2019-03-20T23:56:19.231Z,16.10
2019-03-20T23:58:46.375Z,18.90
